sensor_id;sensor_type;location;lat;lon;timestamp;P1;durP1;ratioP1;P2;durP2;ratioP2
870;SDS011;422;51.280;7.236;2023-05-21T00:00:33;15.93;;;14.23;;
870;SDS011;422;51.280;7.236;2023-05-21T00:03:00;17.90;;;15.77;;
870;SDS011;422;51.280;7.236;2023-05-21T00:05:28;18.73;;;14.47;;
870;SDS011;422;51.280;7.236;2023-05-21T00:07:55;16.90;;;15.00;;
870;SDS011;422;51.280;7.236;2023-05-21T00:10:22;18.43;;;15.47;;
870;SDS011;422;51.280;7.236;2023-05-21T00:12:49;20.73;;;15.97;;
870;SDS011;422;51.280;7.236;2023-05-21T00:15:16;15.93;;;14.07;;
870;SDS011;422;51.280;7.236;2023-05-21T00:17:45;19.43;;;15.87;;
870;SDS011;422;51.280;7.236;2023-05-21T00:20:12;16.33;;;14.40;;
870;SDS011;422;51.280;7.236;2023-05-21T00:22:40;15.93;;;13.67;;
870;SDS011;422;51.280;7.236;2023-05-21T00:25:08;16.40;;;14.57;;
870;SDS011;422;51.280;7.236;2023-05-21T00:27:36;16.00;;;14.33;;
870;SDS011;422;51.280;7.236;2023-05-21T00:30:03;18.73;;;15.27;;
870;SDS011;422;51.280;7.236;2023-05-21T00:32:33;21.77;;;15.97;;
870;SDS011;422;51.280;7.236;2023-05-21T00:35:02;15.30;;;13.80;;
870;SDS011;422;51.280;7.236;2023-05-21T00:37:30;17.83;;;14.67;;
870;SDS011;422;51.280;7.236;2023-05-21T00:40:04;16.70;;;14.73;;
870;SDS011;422;51.280;7.236;2023-05-21T00:42:33;17.57;;;14.73;;
870;SDS011;422;51.280;7.236;2023-05-21T00:45:04;17.53;;;15.47;;
870;SDS011;422;51.280;7.236;2023-05-21T00:47:35;16.20;;;14.50;;
870;SDS011;422;51.280;7.236;2023-05-21T00:50:05;15.40;;;13.80;;
870;SDS011;422;51.280;7.236;2023-05-21T00:52:33;15.87;;;14.10;;
870;SDS011;422;51.280;7.236;2023-05-21T00:55:06;15.50;;;13.90;;
870;SDS011;422;51.280;7.236;2023-05-21T00:57:34;16.70;;;15.20;;
870;SDS011;422;51.280;7.236;2023-05-21T01:00:03;15.50;;;13.40;;
870;SDS011;422;51.280;7.236;2023-05-21T01:02:33;16.57;;;14.73;;
870;SDS011;422;51.280;7.236;2023-05-21T01:05:02;15.60;;;14.00;;
870;SDS011;422;51.280;7.236;2023-05-21T01:07:35;17.20;;;15.40;;
870;SDS011;422;51.280;7.236;2023-05-21T01:10:08;14.93;;;13.27;;
870;SDS011;422;51.280;7.236;2023-05-21T01:12:38;16.73;;;15.03;;
870;SDS011;422;51.280;7.236;2023-05-21T01:15:07;17.87;;;15.23;;
870;SDS011;422;51.280;7.236;2023-05-21T01:17:36;15.50;;;13.90;;
870;SDS011;422;51.280;7.236;2023-05-21T01:20:06;16.83;;;13.33;;
870;SDS011;422;51.280;7.236;2023-05-21T01:22:35;14.83;;;13.33;;
870;SDS011;422;51.280;7.236;2023-05-21T01:25:09;17.17;;;15.33;;
870;SDS011;422;51.280;7.236;2023-05-21T01:27:36;17.40;;;14.40;;
870;SDS011;422;51.280;7.236;2023-05-21T01:30:04;17.00;;;14.30;;
870;SDS011;422;51.280;7.236;2023-05-21T01:32:33;15.50;;;13.87;;
870;SDS011;422;51.280;7.236;2023-05-21T01:35:07;16.40;;;14.63;;
870;SDS011;422;51.280;7.236;2023-05-21T01:37:39;15.63;;;13.60;;
870;SDS011;422;51.280;7.236;2023-05-21T01:40:13;16.17;;;14.47;;
870;SDS011;422;51.280;7.236;2023-05-21T01:42:44;16.30;;;14.10;;
870;SDS011;422;51.280;7.236;2023-05-21T01:45:12;19.67;;;16.70;;
870;SDS011;422;51.280;7.236;2023-05-21T01:47:42;15.77;;;14.17;;
870;SDS011;422;51.280;7.236;2023-05-21T01:50:12;16.93;;;14.60;;
870;SDS011;422;51.280;7.236;2023-05-21T01:52:47;24.93;;;16.30;;
870;SDS011;422;51.280;7.236;2023-05-21T01:55:16;16.90;;;15.13;;
870;SDS011;422;51.280;7.236;2023-05-21T01:57:48;16.57;;;14.60;;
870;SDS011;422;51.280;7.236;2023-05-21T02:00:16;14.97;;;13.40;;
870;SDS011;422;51.280;7.236;2023-05-21T02:02:44;15.50;;;13.90;;
870;SDS011;422;51.280;7.236;2023-05-21T02:05:12;15.60;;;13.93;;
870;SDS011;422;51.280;7.236;2023-05-21T02:07:39;16.63;;;14.10;;
870;SDS011;422;51.280;7.236;2023-05-21T02:10:08;17.50;;;15.60;;
870;SDS011;422;51.280;7.236;2023-05-21T02:12:37;15.87;;;14.20;;
870;SDS011;422;51.280;7.236;2023-05-21T02:15:05;14.50;;;13.10;;
870;SDS011;422;51.280;7.236;2023-05-21T02:17:32;14.67;;;13.07;;
870;SDS011;422;51.280;7.236;2023-05-21T02:20:00;15.97;;;14.30;;
870;SDS011;422;51.280;7.236;2023-05-21T02:22:35;15.20;;;13.70;;
870;SDS011;422;51.280;7.236;2023-05-21T02:25:04;16.40;;;14.70;;
870;SDS011;422;51.280;7.236;2023-05-21T02:27:32;15.43;;;13.83;;
870;SDS011;422;51.280;7.236;2023-05-21T02:30:02;15.60;;;13.53;;
870;SDS011;422;51.280;7.236;2023-05-21T02:32:31;14.87;;;13.27;;
870;SDS011;422;51.280;7.236;2023-05-21T02:34:59;15.90;;;14.30;;
870;SDS011;422;51.280;7.236;2023-05-21T02:37:27;17.50;;;13.47;;
870;SDS011;422;51.280;7.236;2023-05-21T02:39:58;14.77;;;12.90;;
870;SDS011;422;51.280;7.236;2023-05-21T02:42:25;14.90;;;13.33;;
870;SDS011;422;51.280;7.236;2023-05-21T02:44:52;16.60;;;14.90;;
870;SDS011;422;51.280;7.236;2023-05-21T02:47:22;14.43;;;12.93;;
870;SDS011;422;51.280;7.236;2023-05-21T02:49:50;15.57;;;13.97;;
870;SDS011;422;51.280;7.236;2023-05-21T02:52:18;15.00;;;13.20;;
870;SDS011;422;51.280;7.236;2023-05-21T02:54:46;14.73;;;13.20;;
870;SDS011;422;51.280;7.236;2023-05-21T02:57:13;17.47;;;12.73;;
870;SDS011;422;51.280;7.236;2023-05-21T02:59:42;16.77;;;14.13;;
870;SDS011;422;51.280;7.236;2023-05-21T03:02:09;14.60;;;12.97;;
870;SDS011;422;51.280;7.236;2023-05-21T03:04:38;19.50;;;15.00;;
870;SDS011;422;51.280;7.236;2023-05-21T03:07:10;14.30;;;12.80;;
870;SDS011;422;51.280;7.236;2023-05-21T03:09:38;14.30;;;12.43;;
870;SDS011;422;51.280;7.236;2023-05-21T03:12:05;14.33;;;12.83;;
870;SDS011;422;51.280;7.236;2023-05-21T03:14:33;15.30;;;13.80;;
870;SDS011;422;51.280;7.236;2023-05-21T03:17:00;15.53;;;13.20;;
870;SDS011;422;51.280;7.236;2023-05-21T03:19:29;15.33;;;12.70;;
870;SDS011;422;51.280;7.236;2023-05-21T03:22:00;15.17;;;13.60;;
870;SDS011;422;51.280;7.236;2023-05-21T03:24:27;16.60;;;14.87;;
870;SDS011;422;51.280;7.236;2023-05-21T03:26:55;15.73;;;14.10;;
870;SDS011;422;51.280;7.236;2023-05-21T03:29:23;14.53;;;13.20;;
870;SDS011;422;51.280;7.236;2023-05-21T03:31:50;14.53;;;13.03;;
870;SDS011;422;51.280;7.236;2023-05-21T03:34:18;14.60;;;13.10;;
870;SDS011;422;51.280;7.236;2023-05-21T03:36:45;14.43;;;12.93;;
870;SDS011;422;51.280;7.236;2023-05-21T03:39:14;21.07;;;14.03;;
870;SDS011;422;51.280;7.236;2023-05-21T03:41:41;16.33;;;12.73;;
870;SDS011;422;51.280;7.236;2023-05-21T03:44:09;13.40;;;12.10;;
870;SDS011;422;51.280;7.236;2023-05-21T03:46:36;14.77;;;13.20;;
870;SDS011;422;51.280;7.236;2023-05-21T03:49:03;14.70;;;13.07;;
870;SDS011;422;51.280;7.236;2023-05-21T03:51:30;14.40;;;12.13;;
870;SDS011;422;51.280;7.236;2023-05-21T03:53:57;15.10;;;13.50;;
870;SDS011;422;51.280;7.236;2023-05-21T03:56:26;14.40;;;12.90;;
870;SDS011;422;51.280;7.236;2023-05-21T03:58:54;15.30;;;13.70;;
870;SDS011;422;51.280;7.236;2023-05-21T04:01:21;13.97;;;12.10;;
870;SDS011;422;51.280;7.236;2023-05-21T04:03:48;14.53;;;12.43;;
870;SDS011;422;51.280;7.236;2023-05-21T04:06:15;13.90;;;12.50;;
870;SDS011;422;51.280;7.236;2023-05-21T04:08:43;14.13;;;12.30;;
870;SDS011;422;51.280;7.236;2023-05-21T04:11:10;16.23;;;13.10;;
870;SDS011;422;51.280;7.236;2023-05-21T04:13:38;14.53;;;11.73;;
870;SDS011;422;51.280;7.236;2023-05-21T04:16:06;15.10;;;13.60;;
870;SDS011;422;51.280;7.236;2023-05-21T04:18:33;13.87;;;12.53;;
870;SDS011;422;51.280;7.236;2023-05-21T04:21:01;16.33;;;13.03;;
870;SDS011;422;51.280;7.236;2023-05-21T04:23:28;16.80;;;12.80;;
870;SDS011;422;51.280;7.236;2023-05-21T04:25:55;14.70;;;13.30;;
870;SDS011;422;51.280;7.236;2023-05-21T04:28:22;13.80;;;12.50;;
870;SDS011;422;51.280;7.236;2023-05-21T04:30:54;13.13;;;11.77;;
870;SDS011;422;51.280;7.236;2023-05-21T04:33:21;15.10;;;13.70;;
870;SDS011;422;51.280;7.236;2023-05-21T04:35:49;14.47;;;12.60;;
870;SDS011;422;51.280;7.236;2023-05-21T04:38:17;16.40;;;12.60;;
870;SDS011;422;51.280;7.236;2023-05-21T04:40:45;16.23;;;12.77;;
870;SDS011;422;51.280;7.236;2023-05-21T04:43:14;13.93;;;12.53;;
870;SDS011;422;51.280;7.236;2023-05-21T04:45:42;14.37;;;12.47;;
870;SDS011;422;51.280;7.236;2023-05-21T04:48:11;14.13;;;12.60;;
870;SDS011;422;51.280;7.236;2023-05-21T04:50:39;13.40;;;12.10;;
870;SDS011;422;51.280;7.236;2023-05-21T04:53:07;13.10;;;11.90;;
870;SDS011;422;51.280;7.236;2023-05-21T04:55:34;13.13;;;11.57;;
870;SDS011;422;51.280;7.236;2023-05-21T04:58:04;16.93;;;13.23;;
870;SDS011;422;51.280;7.236;2023-05-21T05:00:31;12.27;;;10.97;;
870;SDS011;422;51.280;7.236;2023-05-21T05:02:58;13.70;;;12.30;;
870;SDS011;422;51.280;7.236;2023-05-21T05:05:27;14.53;;;11.13;;
870;SDS011;422;51.280;7.236;2023-05-21T05:07:54;12.93;;;11.63;;
870;SDS011;422;51.280;7.236;2023-05-21T05:10:22;12.90;;;11.63;;
870;SDS011;422;51.280;7.236;2023-05-21T05:12:49;13.03;;;11.73;;
870;SDS011;422;51.280;7.236;2023-05-21T05:15:16;13.23;;;11.83;;
870;SDS011;422;51.280;7.236;2023-05-21T05:17:44;11.80;;;10.60;;
870;SDS011;422;51.280;7.236;2023-05-21T05:20:14;13.77;;;11.43;;
870;SDS011;422;51.280;7.236;2023-05-21T05:22:43;12.60;;;11.30;;
870;SDS011;422;51.280;7.236;2023-05-21T05:25:10;13.30;;;11.90;;
870;SDS011;422;51.280;7.236;2023-05-21T05:27:37;13.10;;;11.80;;
870;SDS011;422;51.280;7.236;2023-05-21T05:30:05;11.93;;;10.80;;
870;SDS011;422;51.280;7.236;2023-05-21T05:32:33;12.87;;;11.50;;
870;SDS011;422;51.280;7.236;2023-05-21T05:35:01;12.97;;;11.70;;
870;SDS011;422;51.280;7.236;2023-05-21T05:37:28;14.50;;;13.10;;
870;SDS011;422;51.280;7.236;2023-05-21T05:39:56;14.40;;;13.00;;
870;SDS011;422;51.280;7.236;2023-05-21T05:42:24;13.17;;;11.63;;
870;SDS011;422;51.280;7.236;2023-05-21T05:44:51;14.10;;;12.63;;
870;SDS011;422;51.280;7.236;2023-05-21T05:47:18;13.37;;;11.97;;
870;SDS011;422;51.280;7.236;2023-05-21T05:49:45;13.23;;;12.03;;
870;SDS011;422;51.280;7.236;2023-05-21T05:52:13;17.03;;;12.80;;
870;SDS011;422;51.280;7.236;2023-05-21T05:54:40;12.53;;;11.23;;
870;SDS011;422;51.280;7.236;2023-05-21T05:57:08;14.30;;;12.90;;
870;SDS011;422;51.280;7.236;2023-05-21T05:59:36;16.00;;;12.13;;
870;SDS011;422;51.280;7.236;2023-05-21T06:02:03;12.37;;;11.07;;
870;SDS011;422;51.280;7.236;2023-05-21T06:04:30;13.67;;;12.27;;
870;SDS011;422;51.280;7.236;2023-05-21T06:06:57;13.83;;;12.53;;
870;SDS011;422;51.280;7.236;2023-05-21T06:09:25;13.70;;;12.10;;
870;SDS011;422;51.280;7.236;2023-05-21T06:11:52;14.50;;;12.07;;
870;SDS011;422;51.280;7.236;2023-05-21T06:14:21;17.33;;;13.53;;
870;SDS011;422;51.280;7.236;2023-05-21T06:16:48;13.87;;;12.57;;
870;SDS011;422;51.280;7.236;2023-05-21T06:19:15;14.33;;;12.93;;
870;SDS011;422;51.280;7.236;2023-05-21T06:21:42;13.27;;;11.97;;
870;SDS011;422;51.280;7.236;2023-05-21T06:24:09;14.00;;;12.60;;
870;SDS011;422;51.280;7.236;2023-05-21T06:26:37;14.53;;;13.10;;
870;SDS011;422;51.280;7.236;2023-05-21T06:29:04;15.20;;;13.60;;
870;SDS011;422;51.280;7.236;2023-05-21T06:31:33;14.17;;;12.83;;
870;SDS011;422;51.280;7.236;2023-05-21T06:34:00;14.80;;;13.10;;
870;SDS011;422;51.280;7.236;2023-05-21T06:36:27;15.13;;;13.60;;
870;SDS011;422;51.280;7.236;2023-05-21T06:38:56;13.80;;;12.40;;
870;SDS011;422;51.280;7.236;2023-05-21T06:41:23;15.80;;;14.20;;
870;SDS011;422;51.280;7.236;2023-05-21T06:43:50;14.10;;;12.70;;
870;SDS011;422;51.280;7.236;2023-05-21T06:46:18;16.53;;;14.40;;
870;SDS011;422;51.280;7.236;2023-05-21T06:48:46;15.03;;;13.53;;
870;SDS011;422;51.280;7.236;2023-05-21T06:51:13;15.80;;;14.27;;
870;SDS011;422;51.280;7.236;2023-05-21T06:53:41;14.60;;;13.17;;
870;SDS011;422;51.280;7.236;2023-05-21T06:56:08;16.13;;;14.30;;
870;SDS011;422;51.280;7.236;2023-05-21T06:58:35;15.03;;;13.63;;
870;SDS011;422;51.280;7.236;2023-05-21T07:01:02;14.70;;;13.20;;
870;SDS011;422;51.280;7.236;2023-05-21T07:03:30;15.27;;;12.90;;
870;SDS011;422;51.280;7.236;2023-05-21T07:05:58;13.60;;;12.30;;
870;SDS011;422;51.280;7.236;2023-05-21T07:08:25;15.37;;;13.87;;
870;SDS011;422;51.280;7.236;2023-05-21T07:10:53;14.30;;;13.00;;
870;SDS011;422;51.280;7.236;2023-05-21T07:13:20;14.70;;;13.30;;
870;SDS011;422;51.280;7.236;2023-05-21T07:15:47;15.10;;;13.80;;
870;SDS011;422;51.280;7.236;2023-05-21T07:18:14;14.23;;;12.97;;
870;SDS011;422;51.280;7.236;2023-05-21T07:20:42;15.43;;;14.00;;
870;SDS011;422;51.280;7.236;2023-05-21T07:23:10;14.10;;;12.70;;
870;SDS011;422;51.280;7.236;2023-05-21T07:25:37;14.50;;;13.20;;
870;SDS011;422;51.280;7.236;2023-05-21T07:28:05;15.80;;;14.40;;
870;SDS011;422;51.280;7.236;2023-05-21T07:30:32;14.23;;;12.83;;
870;SDS011;422;51.280;7.236;2023-05-21T07:32:59;14.37;;;13.03;;
870;SDS011;422;51.280;7.236;2023-05-21T07:35:26;14.90;;;13.53;;
870;SDS011;422;51.280;7.236;2023-05-21T07:37:54;15.27;;;13.97;;
870;SDS011;422;51.280;7.236;2023-05-21T07:40:22;13.43;;;12.23;;
870;SDS011;422;51.280;7.236;2023-05-21T07:42:50;15.50;;;13.03;;
870;SDS011;422;51.280;7.236;2023-05-21T07:45:17;13.10;;;11.90;;
870;SDS011;422;51.280;7.236;2023-05-21T07:47:45;15.07;;;13.67;;
870;SDS011;422;51.280;7.236;2023-05-21T07:50:12;15.50;;;14.13;;
870;SDS011;422;51.280;7.236;2023-05-21T07:52:40;16.03;;;14.63;;
870;SDS011;422;51.280;7.236;2023-05-21T07:55:07;14.20;;;12.90;;
870;SDS011;422;51.280;7.236;2023-05-21T07:57:36;14.60;;;13.40;;
870;SDS011;422;51.280;7.236;2023-05-21T08:00:04;15.40;;;14.10;;
870;SDS011;422;51.280;7.236;2023-05-21T08:02:33;15.57;;;13.93;;
870;SDS011;422;51.280;7.236;2023-05-21T08:05:00;14.87;;;13.43;;
870;SDS011;422;51.280;7.236;2023-05-21T08:07:27;15.27;;;13.87;;
870;SDS011;422;51.280;7.236;2023-05-21T08:09:56;15.17;;;13.67;;
870;SDS011;422;51.280;7.236;2023-05-21T08:12:23;16.13;;;14.73;;
870;SDS011;422;51.280;7.236;2023-05-21T08:14:52;15.63;;;14.23;;
870;SDS011;422;51.280;7.236;2023-05-21T08:17:19;15.03;;;13.80;;
870;SDS011;422;51.280;7.236;2023-05-21T08:19:46;15.03;;;13.73;;
870;SDS011;422;51.280;7.236;2023-05-21T08:22:13;15.97;;;14.57;;
870;SDS011;422;51.280;7.236;2023-05-21T08:24:40;15.93;;;14.53;;
870;SDS011;422;51.280;7.236;2023-05-21T08:27:08;15.40;;;14.00;;
870;SDS011;422;51.280;7.236;2023-05-21T08:29:35;16.13;;;14.57;;
870;SDS011;422;51.280;7.236;2023-05-21T08:32:04;15.47;;;14.10;;
870;SDS011;422;51.280;7.236;2023-05-21T08:34:33;16.60;;;15.00;;
870;SDS011;422;51.280;7.236;2023-05-21T08:37:01;16.23;;;14.63;;
870;SDS011;422;51.280;7.236;2023-05-21T08:39:28;16.20;;;14.70;;
870;SDS011;422;51.280;7.236;2023-05-21T08:41:56;15.83;;;14.37;;
870;SDS011;422;51.280;7.236;2023-05-21T08:44:29;16.43;;;15.03;;
870;SDS011;422;51.280;7.236;2023-05-21T08:47:01;15.97;;;14.47;;
870;SDS011;422;51.280;7.236;2023-05-21T08:49:35;17.23;;;15.23;;
870;SDS011;422;51.280;7.236;2023-05-21T08:52:03;17.60;;;15.87;;
870;SDS011;422;51.280;7.236;2023-05-21T08:54:31;16.63;;;15.13;;
870;SDS011;422;51.280;7.236;2023-05-21T08:56:59;15.10;;;13.70;;
870;SDS011;422;51.280;7.236;2023-05-21T08:59:27;15.90;;;14.50;;
870;SDS011;422;51.280;7.236;2023-05-21T09:01:55;16.00;;;14.50;;
870;SDS011;422;51.280;7.236;2023-05-21T09:04:25;16.30;;;14.90;;
870;SDS011;422;51.280;7.236;2023-05-21T09:06:53;17.07;;;15.57;;
870;SDS011;422;51.280;7.236;2023-05-21T09:09:23;18.03;;;16.43;;
870;SDS011;422;51.280;7.236;2023-05-21T09:11:53;17.33;;;15.80;;
870;SDS011;422;51.280;7.236;2023-05-21T09:14:20;16.17;;;14.57;;
870;SDS011;422;51.280;7.236;2023-05-21T09:16:49;17.73;;;16.20;;
870;SDS011;422;51.280;7.236;2023-05-21T09:19:18;17.20;;;15.60;;
870;SDS011;422;51.280;7.236;2023-05-21T09:21:47;15.97;;;14.57;;
870;SDS011;422;51.280;7.236;2023-05-21T09:24:17;16.53;;;14.90;;
870;SDS011;422;51.280;7.236;2023-05-21T09:26:47;15.63;;;14.17;;
870;SDS011;422;51.280;7.236;2023-05-21T09:29:15;16.43;;;14.90;;
870;SDS011;422;51.280;7.236;2023-05-21T09:31:42;17.10;;;15.67;;
870;SDS011;422;51.280;7.236;2023-05-21T09:34:10;16.77;;;15.17;;
870;SDS011;422;51.280;7.236;2023-05-21T09:36:38;15.87;;;14.47;;
870;SDS011;422;51.280;7.236;2023-05-21T09:39:06;18.13;;;16.53;;
870;SDS011;422;51.280;7.236;2023-05-21T09:41:36;16.40;;;15.00;;
870;SDS011;422;51.280;7.236;2023-05-21T09:44:03;18.47;;;16.87;;
870;SDS011;422;51.280;7.236;2023-05-21T09:46:36;17.10;;;15.53;;
870;SDS011;422;51.280;7.236;2023-05-21T09:49:04;17.40;;;15.73;;
870;SDS011;422;51.280;7.236;2023-05-21T09:51:32;16.97;;;15.47;;
870;SDS011;422;51.280;7.236;2023-05-21T09:53:59;17.70;;;16.07;;
870;SDS011;422;51.280;7.236;2023-05-21T09:56:28;17.00;;;15.50;;
870;SDS011;422;51.280;7.236;2023-05-21T09:58:56;16.50;;;15.07;;
870;SDS011;422;51.280;7.236;2023-05-21T10:01:25;16.57;;;15.00;;
870;SDS011;422;51.280;7.236;2023-05-21T10:03:54;16.63;;;15.20;;
870;SDS011;422;51.280;7.236;2023-05-21T10:06:23;17.67;;;16.07;;
870;SDS011;422;51.280;7.236;2023-05-21T10:08:53;15.83;;;14.43;;
870;SDS011;422;51.280;7.236;2023-05-21T10:11:22;16.83;;;15.33;;
870;SDS011;422;51.280;7.236;2023-05-21T10:13:53;18.70;;;17.00;;
870;SDS011;422;51.280;7.236;2023-05-21T10:16:23;17.07;;;15.37;;
870;SDS011;422;51.280;7.236;2023-05-21T10:18:51;16.50;;;14.80;;
870;SDS011;422;51.280;7.236;2023-05-21T10:21:20;15.40;;;14.07;;
870;SDS011;422;51.280;7.236;2023-05-21T10:23:48;16.60;;;14.90;;
870;SDS011;422;51.280;7.236;2023-05-21T10:26:17;17.67;;;16.07;;
870;SDS011;422;51.280;7.236;2023-05-21T10:28:47;16.87;;;15.37;;
870;SDS011;422;51.280;7.236;2023-05-21T10:31:18;17.90;;;16.30;;
870;SDS011;422;51.280;7.236;2023-05-21T10:33:45;18.60;;;17.07;;
870;SDS011;422;51.280;7.236;2023-05-21T10:36:14;18.07;;;16.50;;
870;SDS011;422;51.280;7.236;2023-05-21T10:38:42;18.23;;;16.63;;
870;SDS011;422;51.280;7.236;2023-05-21T10:41:10;18.20;;;16.60;;
870;SDS011;422;51.280;7.236;2023-05-21T10:43:47;17.43;;;15.83;;
870;SDS011;422;51.280;7.236;2023-05-21T10:46:34;17.87;;;16.23;;
870;SDS011;422;51.280;7.236;2023-05-21T10:49:26;16.87;;;15.37;;
870;SDS011;422;51.280;7.236;2023-05-21T10:52:06;16.83;;;15.33;;
870;SDS011;422;51.280;7.236;2023-05-21T10:55:04;16.67;;;15.30;;
870;SDS011;422;51.280;7.236;2023-05-21T11:00:41;17.07;;;15.47;;
870;SDS011;422;51.280;7.236;2023-05-21T11:03:10;17.07;;;15.57;;
870;SDS011;422;51.280;7.236;2023-05-21T11:05:39;17.37;;;16.00;;
870;SDS011;422;51.280;7.236;2023-05-21T11:08:22;17.30;;;15.80;;
870;SDS011;422;51.280;7.236;2023-05-21T11:10:51;18.17;;;16.40;;
870;SDS011;422;51.280;7.236;2023-05-21T11:13:20;18.00;;;16.50;;
870;SDS011;422;51.280;7.236;2023-05-21T11:16:06;19.80;;;18.17;;
870;SDS011;422;51.280;7.236;2023-05-21T11:19:01;17.90;;;16.30;;
870;SDS011;422;51.280;7.236;2023-05-21T11:21:29;18.23;;;16.70;;
870;SDS011;422;51.280;7.236;2023-05-21T11:23:59;18.00;;;16.40;;
870;SDS011;422;51.280;7.236;2023-05-21T11:29:30;17.57;;;16.07;;
870;SDS011;422;51.280;7.236;2023-05-21T11:32:05;18.53;;;16.43;;
870;SDS011;422;51.280;7.236;2023-05-21T11:34:38;20.30;;;16.53;;
870;SDS011;422;51.280;7.236;2023-05-21T11:39:54;19.40;;;17.80;;
870;SDS011;422;51.280;7.236;2023-05-21T11:42:29;18.70;;;17.20;;
870;SDS011;422;51.280;7.236;2023-05-21T11:44:57;16.97;;;15.47;;
870;SDS011;422;51.280;7.236;2023-05-21T11:47:26;17.27;;;15.87;;
870;SDS011;422;51.280;7.236;2023-05-21T11:49:55;17.03;;;15.53;;
870;SDS011;422;51.280;7.236;2023-05-21T11:52:26;16.53;;;14.97;;
870;SDS011;422;51.280;7.236;2023-05-21T11:54:54;16.23;;;14.93;;
870;SDS011;422;51.280;7.236;2023-05-21T11:57:24;19.53;;;17.83;;
870;SDS011;422;51.280;7.236;2023-05-21T11:59:54;16.67;;;15.37;;
870;SDS011;422;51.280;7.236;2023-05-21T12:02:24;17.53;;;16.13;;
870;SDS011;422;51.280;7.236;2023-05-21T12:04:52;18.20;;;16.70;;
870;SDS011;422;51.280;7.236;2023-05-21T12:07:25;18.70;;;17.00;;
870;SDS011;422;51.280;7.236;2023-05-21T12:09:54;16.50;;;15.10;;
870;SDS011;422;51.280;7.236;2023-05-21T12:12:23;18.17;;;16.73;;
870;SDS011;422;51.280;7.236;2023-05-21T12:14:51;18.80;;;17.20;;
870;SDS011;422;51.280;7.236;2023-05-21T12:17:20;18.87;;;17.27;;
870;SDS011;422;51.280;7.236;2023-05-21T12:19:49;17.33;;;15.50;;
870;SDS011;422;51.280;7.236;2023-05-21T12:22:19;19.00;;;17.40;;
870;SDS011;422;51.280;7.236;2023-05-21T12:24:48;17.43;;;15.83;;
870;SDS011;422;51.280;7.236;2023-05-21T12:27:17;20.23;;;18.27;;
870;SDS011;422;51.280;7.236;2023-05-21T12:29:47;17.43;;;15.93;;
870;SDS011;422;51.280;7.236;2023-05-21T12:32:15;19.30;;;17.53;;
870;SDS011;422;51.280;7.236;2023-05-21T12:34:43;19.50;;;17.90;;
870;SDS011;422;51.280;7.236;2023-05-21T12:37:14;19.17;;;17.53;;
870;SDS011;422;51.280;7.236;2023-05-21T12:39:44;17.13;;;15.73;;
870;SDS011;422;51.280;7.236;2023-05-21T12:42:12;18.50;;;17.00;;
870;SDS011;422;51.280;7.236;2023-05-21T12:44:42;19.13;;;17.40;;
870;SDS011;422;51.280;7.236;2023-05-21T12:47:10;19.57;;;17.90;;
870;SDS011;422;51.280;7.236;2023-05-21T12:49:39;17.17;;;15.67;;
870;SDS011;422;51.280;7.236;2023-05-21T12:52:09;15.17;;;13.77;;
870;SDS011;422;51.280;7.236;2023-05-21T12:54:37;19.33;;;17.73;;
870;SDS011;422;51.280;7.236;2023-05-21T12:57:13;18.77;;;17.27;;
870;SDS011;422;51.280;7.236;2023-05-21T12:59:45;17.33;;;15.63;;
870;SDS011;422;51.280;7.236;2023-05-21T13:02:23;17.90;;;16.30;;
870;SDS011;422;51.280;7.236;2023-05-21T13:04:54;17.77;;;16.37;;
870;SDS011;422;51.280;7.236;2023-05-21T13:07:23;17.27;;;15.77;;
870;SDS011;422;51.280;7.236;2023-05-21T13:09:51;18.47;;;16.87;;
870;SDS011;422;51.280;7.236;2023-05-21T13:12:20;17.13;;;15.63;;
870;SDS011;422;51.280;7.236;2023-05-21T13:14:48;19.33;;;17.53;;
870;SDS011;422;51.280;7.236;2023-05-21T13:17:16;19.50;;;17.70;;
870;SDS011;422;51.280;7.236;2023-05-21T13:19:45;19.77;;;17.97;;
870;SDS011;422;51.280;7.236;2023-05-21T13:22:30;18.60;;;17.00;;
870;SDS011;422;51.280;7.236;2023-05-21T13:24:58;17.60;;;16.10;;
870;SDS011;422;51.280;7.236;2023-05-21T13:27:26;18.93;;;17.30;;
870;SDS011;422;51.280;7.236;2023-05-21T13:29:54;18.67;;;17.07;;
870;SDS011;422;51.280;7.236;2023-05-21T13:32:21;20.70;;;18.93;;
870;SDS011;422;51.280;7.236;2023-05-21T13:34:50;19.60;;;17.73;;
870;SDS011;422;51.280;7.236;2023-05-21T13:37:17;17.50;;;15.90;;
870;SDS011;422;51.280;7.236;2023-05-21T13:39:45;18.30;;;16.60;;
870;SDS011;422;51.280;7.236;2023-05-21T13:42:12;18.60;;;17.00;;
870;SDS011;422;51.280;7.236;2023-05-21T13:44:42;19.57;;;17.87;;
870;SDS011;422;51.280;7.236;2023-05-21T13:47:09;20.07;;;18.27;;
870;SDS011;422;51.280;7.236;2023-05-21T13:49:37;19.60;;;17.93;;
870;SDS011;422;51.280;7.236;2023-05-21T13:52:04;16.97;;;15.60;;
870;SDS011;422;51.280;7.236;2023-05-21T13:54:32;19.33;;;17.83;;
870;SDS011;422;51.280;7.236;2023-05-21T13:57:00;19.30;;;17.70;;
870;SDS011;422;51.280;7.236;2023-05-21T13:59:28;18.70;;;17.20;;
870;SDS011;422;51.280;7.236;2023-05-21T14:01:56;16.40;;;15.00;;
870;SDS011;422;51.280;7.236;2023-05-21T14:04:26;15.60;;;14.20;;
870;SDS011;422;51.280;7.236;2023-05-21T14:06:54;16.30;;;15.07;;
870;SDS011;422;51.280;7.236;2023-05-21T14:09:21;15.73;;;14.20;;
870;SDS011;422;51.280;7.236;2023-05-21T14:11:51;16.43;;;15.00;;
870;SDS011;422;51.280;7.236;2023-05-21T14:14:19;18.60;;;16.93;;
870;SDS011;422;51.280;7.236;2023-05-21T14:16:46;17.60;;;16.10;;
870;SDS011;422;51.280;7.236;2023-05-21T14:19:16;16.20;;;14.90;;
870;SDS011;422;51.280;7.236;2023-05-21T14:21:43;17.00;;;15.60;;
870;SDS011;422;51.280;7.236;2023-05-21T14:24:11;15.17;;;13.97;;
870;SDS011;422;51.280;7.236;2023-05-21T14:26:38;17.90;;;16.37;;
870;SDS011;422;51.280;7.236;2023-05-21T14:29:06;16.23;;;14.67;;
870;SDS011;422;51.280;7.236;2023-05-21T14:31:34;16.90;;;15.33;;
870;SDS011;422;51.280;7.236;2023-05-21T14:34:01;17.73;;;16.10;;
870;SDS011;422;51.280;7.236;2023-05-21T14:36:32;15.47;;;14.27;;
870;SDS011;422;51.280;7.236;2023-05-21T14:39:00;18.40;;;16.70;;
870;SDS011;422;51.280;7.236;2023-05-21T14:41:27;17.30;;;15.40;;
870;SDS011;422;51.280;7.236;2023-05-21T14:43:55;15.83;;;14.43;;
870;SDS011;422;51.280;7.236;2023-05-21T14:46:22;15.50;;;14.30;;
870;SDS011;422;51.280;7.236;2023-05-21T14:48:50;15.13;;;13.93;;
870;SDS011;422;51.280;7.236;2023-05-21T14:51:17;16.83;;;15.40;;
870;SDS011;422;51.280;7.236;2023-05-21T14:53:46;16.03;;;14.73;;
870;SDS011;422;51.280;7.236;2023-05-21T14:56:13;17.93;;;16.40;;
870;SDS011;422;51.280;7.236;2023-05-21T14:58:40;17.17;;;15.77;;
870;SDS011;422;51.280;7.236;2023-05-21T15:01:08;17.57;;;16.03;;
870;SDS011;422;51.280;7.236;2023-05-21T15:03:35;17.80;;;16.37;;
870;SDS011;422;51.280;7.236;2023-05-21T15:06:02;18.27;;;16.73;;
870;SDS011;422;51.280;7.236;2023-05-21T15:08:30;17.80;;;16.40;;
870;SDS011;422;51.280;7.236;2023-05-21T15:10:58;18.37;;;16.77;;
870;SDS011;422;51.280;7.236;2023-05-21T15:13:25;17.47;;;15.77;;
870;SDS011;422;51.280;7.236;2023-05-21T15:15:53;15.53;;;14.33;;
870;SDS011;422;51.280;7.236;2023-05-21T15:18:20;17.20;;;15.80;;
870;SDS011;422;51.280;7.236;2023-05-21T15:20:49;16.67;;;15.27;;
870;SDS011;422;51.280;7.236;2023-05-21T15:23:17;17.43;;;15.90;;
870;SDS011;422;51.280;7.236;2023-05-21T15:25:44;17.60;;;15.93;;
870;SDS011;422;51.280;7.236;2023-05-21T15:28:13;16.90;;;15.50;;
870;SDS011;422;51.280;7.236;2023-05-21T15:30:40;17.30;;;15.90;;
870;SDS011;422;51.280;7.236;2023-05-21T15:33:07;17.03;;;15.60;;